Amanti — ZCIT — position and weather

sailwx.info

Track history (hours):
 
Tides and Currents Weather Stations Pressure Air Temp Water Temp Dewpoint Dewpoint Depression Visibility Wind Speed Wind Dir Waves Ship Positions

Amanti

Last reported at 2016-Sep-27 00:16 UTC. Time now 2016-Sep-27 13:50 UTC.
Position N 09°08' W 079°49'.

Length 52 m; draft 3.3 m.

Type: Pleasure craft. MMSI: 319874000.

Date/timePositionNaut miles runAvg speedWind from/ knotsBaromVisibWave heightAir tempDewpointWater temp
2016-Sep-27 00:16N 09°08' W 079°49'14 3.8
2016-Sep-26 20:31N 09°21' W 079°55'0 0.0
2016-Sep-26 19:33N 09°21' W 079°55'3 0.6
2016-Sep-26 15:33N 09°22' W 079°57'0 0.0
2016-Sep-26 13:27N 09°22' W 079°57'0 0.0
2016-Sep-26 11:12N 09°22' W 079°57'0 0.0
2016-Sep-26 08:12N 09°22' W 079°57'0 0.0
2016-Sep-26 02:33N 09°22' W 079°57'0 0.0
2016-Sep-26 01:15N 09°22' W 079°57'0 0.0
2016-Sep-25 21:32N 09°22' W 079°57'0 0.0
2016-Sep-25 17:27N 09°22' W 079°57'0 0.0
2016-Sep-25 16:29N 09°22' W 079°57'0 0.0
2016-Sep-25 15:22N 09°22' W 079°57'0 0.0
2016-Sep-25 14:33N 09°22' W 079°57'0 0.0
2016-Sep-25 12:30N 09°22' W 079°57'0 0.0
2016-Sep-25 11:22N 09°22' W 079°57'0 0.0
2016-Sep-25 10:32N 09°22' W 079°57'0 0.0
2016-Sep-25 09:33N 09°22' W 079°57'0 0.0
2016-Sep-25 07:33N 09°22' W 079°57'0 0.0
2016-Sep-25 04:30N 09°22' W 079°57'0 0.0
2016-Sep-25 00:24N 09°22' W 079°57'0 0.0
2016-Sep-24 22:33N 09°22' W 079°57'0 0.0
2016-Sep-24 21:21N 09°22' W 079°57'0 0.0
2016-Sep-24 19:33N 09°22' W 079°57'0 0.0
2016-Sep-24 18:26N 09°22' W 079°57'0 0.0
2016-Sep-24 17:29N 09°22' W 079°57'0 0.0
2016-Sep-24 16:32N 09°22' W 079°57'0 0.0
2016-Sep-24 14:27N 09°22' W 079°57'0 0.0
2016-Sep-24 12:33N 09°22' W 079°57'0 0.0
2016-Sep-24 10:33N 09°22' W 079°57'0 0.0
2016-Sep-24 09:29N 09°22' W 079°57'0 0.0
2016-Sep-24 03:28N 09°22' W 079°57'0 0.0
2016-Sep-24 02:32N 09°22' W 079°57'0 0.0
2016-Sep-24 01:30N 09°22' W 079°57'0 0.0
2016-Sep-24 00:32N 09°22' W 079°57'0 0.0
2016-Sep-23 19:29N 09°22' W 079°57'0 0.0
2016-Sep-23 17:33N 09°22' W 079°57'0 0.0
2016-Sep-23 16:29N 09°22' W 079°57'0 0.0
2016-Sep-23 15:33N 09°22' W 079°57'0 0.0
2016-Sep-23 13:27N 09°22' W 079°57'12 3.1
2016-Sep-23 09:33N 09°33' W 079°52'  
2016-Sep-18 15:32N 26°01' W 079°58'1010.0
2016-Sep-18 14:33N 26°06' W 080°07'1 0.3
2016-Sep-18 10:29N 26°07' W 080°06'0 0.0
2016-Sep-18 09:32N 26°07' W 080°06'0 0.0
2016-Sep-18 02:26N 26°07' W 080°06'0 0.0
2016-Sep-18 01:29N 26°07' W 080°06'0 0.0
2016-Sep-18 00:29N 26°07' W 080°06'0 0.0
2016-Sep-17 22:32N 26°07' W 080°06'0 0.0
2016-Sep-17 21:32N 26°07' W 080°06'0 0.0
2016-Sep-17 20:32N 26°07' W 080°06'0 0.0
2016-Sep-17 19:14N 26°07' W 080°06'0 0.0
2016-Sep-17 13:26N 26°07' W 080°06'0 0.0
2016-Sep-17 12:26N 26°07' W 080°06'0 0.0
2016-Sep-17 10:29N 26°07' W 080°06'0 0.0
2016-Sep-17 09:29N 26°07' W 080°06'0 0.0
2016-Sep-17 08:32N 26°07' W 080°06'0 0.0
2016-Sep-17 07:32N 26°07' W 080°06'0 0.0
2016-Sep-17 05:32N 26°07' W 080°06'0 0.0
2016-Sep-17 04:32N 26°07' W 080°06'0 0.0
2016-Sep-17 00:26N 26°07' W 080°06'  
Track history (hours):
 
Tides and Currents Weather Stations Pressure Air Temp Water Temp Dewpoint Dewpoint Depression Visibility Wind Speed Wind Dir Waves Ship Positions

Amanti

Last reported at 2016-Sep-27 00:16 UTC. Time now 2016-Sep-27 13:50 UTC.
Position N 09°08' W 079°49'.

Length 52 m; draft 3.3 m.

Type: Pleasure craft. MMSI: 319874000.

Date/timePositionNaut miles runAvg speedWind from/ knotsBaromVisibWave heightAir tempDewpointWater temp
2016-Sep-27 00:16N 09°08' W 079°49'14 3.8
2016-Sep-26 20:31N 09°21' W 079°55'0 0.0
2016-Sep-26 19:33N 09°21' W 079°55'3 0.6
2016-Sep-26 15:33N 09°22' W 079°57'0 0.0
2016-Sep-26 13:27N 09°22' W 079°57'0 0.0
2016-Sep-26 11:12N 09°22' W 079°57'0 0.0
2016-Sep-26 08:12N 09°22' W 079°57'0 0.0
2016-Sep-26 02:33N 09°22' W 079°57'0 0.0
2016-Sep-26 01:15N 09°22' W 079°57'0 0.0
2016-Sep-25 21:32N 09°22' W 079°57'0 0.0
2016-Sep-25 17:27N 09°22' W 079°57'0 0.0
2016-Sep-25 16:29N 09°22' W 079°57'0 0.0
2016-Sep-25 15:22N 09°22' W 079°57'0 0.0
2016-Sep-25 14:33N 09°22' W 079°57'0 0.0
2016-Sep-25 12:30N 09°22' W 079°57'0 0.0
2016-Sep-25 11:22N 09°22' W 079°57'0 0.0
2016-Sep-25 10:32N 09°22' W 079°57'0 0.0
2016-Sep-25 09:33N 09°22' W 079°57'0 0.0
2016-Sep-25 07:33N 09°22' W 079°57'0 0.0
2016-Sep-25 04:30N 09°22' W 079°57'0 0.0
2016-Sep-25 00:24N 09°22' W 079°57'0 0.0
2016-Sep-24 22:33N 09°22' W 079°57'0 0.0
2016-Sep-24 21:21N 09°22' W 079°57'0 0.0
2016-Sep-24 19:33N 09°22' W 079°57'0 0.0
2016-Sep-24 18:26N 09°22' W 079°57'0 0.0
2016-Sep-24 17:29N 09°22' W 079°57'0 0.0
2016-Sep-24 16:32N 09°22' W 079°57'0 0.0
2016-Sep-24 14:27N 09°22' W 079°57'0 0.0
2016-Sep-24 12:33N 09°22' W 079°57'0 0.0
2016-Sep-24 10:33N 09°22' W 079°57'0 0.0
2016-Sep-24 09:29N 09°22' W 079°57'0 0.0
2016-Sep-24 03:28N 09°22' W 079°57'0 0.0
2016-Sep-24 02:32N 09°22' W 079°57'0 0.0
2016-Sep-24 01:30N 09°22' W 079°57'0 0.0
2016-Sep-24 00:32N 09°22' W 079°57'0 0.0
2016-Sep-23 19:29N 09°22' W 079°57'0 0.0
2016-Sep-23 17:33N 09°22' W 079°57'0 0.0
2016-Sep-23 16:29N 09°22' W 079°57'0 0.0
2016-Sep-23 15:33N 09°22' W 079°57'0 0.0
2016-Sep-23 13:27N 09°22' W 079°57'12 3.1
2016-Sep-23 09:33N 09°33' W 079°52'  
2016-Sep-18 15:32N 26°01' W 079°58'1010.0
2016-Sep-18 14:33N 26°06' W 080°07'1 0.3
2016-Sep-18 10:29N 26°07' W 080°06'0 0.0
2016-Sep-18 09:32N 26°07' W 080°06'0 0.0
2016-Sep-18 02:26N 26°07' W 080°06'0 0.0
2016-Sep-18 01:29N 26°07' W 080°06'0 0.0
2016-Sep-18 00:29N 26°07' W 080°06'0 0.0
2016-Sep-17 22:32N 26°07' W 080°06'0 0.0
2016-Sep-17 21:32N 26°07' W 080°06'0 0.0
2016-Sep-17 20:32N 26°07' W 080°06'0 0.0
2016-Sep-17 19:14N 26°07' W 080°06'0 0.0
2016-Sep-17 13:26N 26°07' W 080°06'0 0.0
2016-Sep-17 12:26N 26°07' W 080°06'0 0.0
2016-Sep-17 10:29N 26°07' W 080°06'0 0.0
2016-Sep-17 09:29N 26°07' W 080°06'0 0.0
2016-Sep-17 08:32N 26°07' W 080°06'0 0.0
2016-Sep-17 07:32N 26°07' W 080°06'0 0.0
2016-Sep-17 05:32N 26°07' W 080°06'0 0.0
2016-Sep-17 04:32N 26°07' W 080°06'0 0.0
2016-Sep-17 00:26N 26°07' W 080°06'  

Dump ship's entire track history